Time;durP1;ratioP1;P1;durP2;ratioP2;P2;SDS_P1;SDS_P2;PMS_P1;PMS_P2;Temp;Humidity;BMP_temperature;BMP_pressure;BME280_temperature;BME280_humidity;BME280_pressure;Samples;Min_cycle;Max_cycle;Signal;HPM_P1;HPM_P2
2023/07/17 02:00:16;;;;;;;5.85;4.50;;;;;;;;;;4988687;28;21126;-78
2023/07/17 02:02:44;;;;;;;3.80;3.05;;;;;;;;;;4266621;33;20415;-75
2023/07/17 02:05:10;;;;;;;4.97;3.33;;;;;;;;;;4266805;33;20045;-75
2023/07/17 02:07:36;;;;;;;9.38;4.22;;;;;;;;;;4263836;33;20335;-75
2023/07/17 02:10:03;;;;;;;4.12;3.72;;;;;;;;;;4264737;33;20092;-74
2023/07/17 02:12:30;;;;;;;4.40;3.42;;;;;;;;;;4252721;33;20053;-74
2023/07/17 02:14:59;;;;;;;3.50;2.97;;;;;;;;;;4252360;33;20149;-76
2023/07/17 02:17:28;;;;;;;8.82;3.10;;;;;;;;;;4262931;33;20068;-77
2023/07/17 02:19:55;;;;;;;6.60;3.25;;;;;;;;;;4264757;33;20091;-75
2023/07/17 02:22:21;;;;;;;3.78;3.08;;;;;;;;;;4236147;33;20068;-76
2023/07/17 02:24:48;;;;;;;5.57;2.95;;;;;;;;;;4236885;33;20532;-75
2023/07/17 02:27:15;;;;;;;8.25;3.37;;;;;;;;;;4221853;34;20077;-74
2023/07/17 02:29:41;;;;;;;10.13;3.95;;;;;;;;;;4206260;34;20039;-77
2023/07/17 02:32:09;;;;;;;10.95;2.75;;;;;;;;;;4208268;34;20063;-75
2023/07/17 02:34:36;;;;;;;3.08;2.80;;;;;;;;;;4197092;34;20047;-75
2023/07/17 02:37:08;;;;;;;5.00;3.00;;;;;;;;;;4208056;34;20462;-75
2023/07/17 02:39:34;;;;;;;;;;;;;;;;;;4195269;34;20035;-76
2023/07/17 02:42:01;;;;;;;4.30;2.55;;;;;;;;;;4196484;34;20729;-74
2023/07/17 02:44:27;;;;;;;3.70;3.10;;;;;;;;;;4194391;34;20071;-74
2023/07/17 02:46:54;;;;;;;2.80;2.60;;;;;;;;;;4207709;34;20411;-75
2023/07/17 02:49:20;;;;;;;2.80;2.60;;;;;;;;;;4195100;34;20044;-77
2023/07/17 02:51:47;;;;;;;3.10;2.83;;;;;;;;;;4193718;34;20249;-75
2023/07/17 02:54:13;;;;;;;12.75;4.78;;;;;;;;;;4205908;34;20039;-74
2023/07/17 02:56:40;;;;;;;11.82;3.90;;;;;;;;;;4206762;34;20192;-74
2023/07/17 02:59:06;;;;;;;13.68;4.10;;;;;;;;;;4180243;34;20501;-74
2023/07/17 03:01:32;;;;;;;7.43;3.22;;;;;;;;;;4177905;34;20406;-75
2023/07/17 03:03:59;;;;;;;3.65;2.95;;;;;;;;;;4193797;34;20039;-75
2023/07/17 03:06:25;;;;;;;4.90;4.18;;;;;;;;;;4194569;34;20101;-75
2023/07/17 03:08:52;;;;;;;6.85;3.12;;;;;;;;;;4194028;34;20445;-75
2023/07/17 03:11:18;;;;;;;3.83;2.85;;;;;;;;;;4192834;34;20052;-77
2023/07/17 03:13:44;;;;;;;10.63;3.30;;;;;;;;;;4193346;34;20051;-75
2023/07/17 03:16:11;;;;;;;6.07;5.18;;;;;;;;;;4204546;34;20039;-75
2023/07/17 03:18:37;;;;;;;5.43;3.40;;;;;;;;;;4197456;34;20390;-75
2023/07/17 03:21:04;;;;;;;5.78;3.42;;;;;;;;;;4180273;34;20398;-75
2023/07/17 03:23:30;;;;;;;3.92;3.37;;;;;;;;;;4178438;34;20128;-76
2023/07/17 03:25:57;;;;;;;4.82;3.20;;;;;;;;;;4180440;34;20954;-75
2023/07/17 03:28:23;;;;;;;4.07;2.87;;;;;;;;;;4183222;34;20032;-75
2023/07/17 03:30:51;;;;;;;12.82;5.03;;;;;;;;;;4184355;34;20135;-76
2023/07/17 03:33:18;;;;;;;4.78;3.37;;;;;;;;;;4196390;34;20529;-75
2023/07/17 03:35:46;;;;;;;4.07;3.62;;;;;;;;;;4192407;34;20581;-76
2023/07/17 03:38:14;;;;;;;3.95;3.47;;;;;;;;;;4173500;34;20193;-74
2023/07/17 03:40:40;;;;;;;6.20;3.65;;;;;;;;;;4192930;34;20116;-75
2023/07/17 03:43:06;;;;;;;16.77;3.45;;;;;;;;;;4182546;34;20056;-75
2023/07/17 03:45:33;;;;;;;8.00;3.40;;;;;;;;;;4171057;34;20072;-75
2023/07/17 03:47:59;;;;;;;6.12;3.50;;;;;;;;;;4189476;34;20101;-75
2023/07/17 03:50:28;;;;;;;4.28;3.05;;;;;;;;;;4196953;34;20543;-75
2023/07/17 03:52:54;;;;;;;12.63;3.42;;;;;;;;;;4191569;34;20406;-77
2023/07/17 03:55:21;;;;;;;3.70;3.40;;;;;;;;;;4191918;34;20055;-76
2023/07/17 03:57:53;;;;;;;3.53;3.22;;;;;;;;;;4167928;34;20040;-75
2023/07/17 04:00:19;;;;;;;4.78;2.97;;;;;;;;;;4156493;34;20040;-75
2023/07/17 04:02:45;;;;;;;5.28;3.50;;;;;;;;;;4157481;34;20477;-75
2023/07/17 04:05:13;;;;;;;3.92;2.90;;;;;;;;;;4192161;34;20115;-77
2023/07/17 04:07:40;;;;;;;11.80;2.92;;;;;;;;;;4194450;34;20028;-75
2023/07/17 04:10:07;;;;;;;7.05;3.20;;;;;;;;;;4196075;34;20334;-74
2023/07/17 04:12:33;;;;;;;3.08;2.67;;;;;;;;;;4184713;34;20127;-75
2023/07/17 04:15:00;;;;;;;3.47;3.20;;;;;;;;;;4196456;34;20472;-75
2023/07/17 04:17:26;;;;;;;3.47;3.17;;;;;;;;;;4206827;34;20047;-77
2023/07/17 04:19:52;;;;;;;10.15;3.10;;;;;;;;;;4195744;34;20334;-75
2023/07/17 04:22:19;;;;;;;4.45;3.03;;;;;;;;;;4196259;34;20044;-74
2023/07/17 04:24:45;;;;;;;7.80;4.37;;;;;;;;;;4196164;34;20077;-74
2023/07/17 04:27:11;;;;;;;4.00;3.20;;;;;;;;;;4195896;34;20032;-75
2023/07/17 04:29:38;;;;;;;3.72;3.42;;;;;;;;;;4193651;34;20069;-75
2023/07/17 04:32:05;;;;;;;5.60;3.78;;;;;;;;;;4195753;34;20789;-74
2023/07/17 04:34:32;;;;;;;4.30;3.10;;;;;;;;;;4196493;34;20043;-74
2023/07/17 04:36:58;;;;;;;3.95;3.47;;;;;;;;;;4195801;34;20457;-75
2023/07/17 04:39:25;;;;;;;4.03;3.47;;;;;;;;;;4167978;34;20055;-77
2023/07/17 04:41:52;;;;;;;3.65;3.17;;;;;;;;;;4166618;34;20028;-74
2023/07/17 04:44:18;;;;;;;6.32;3.47;;;;;;;;;;4168677;34;20380;-75
2023/07/17 04:46:44;;;;;;;3.53;3.22;;;;;;;;;;4168250;34;20104;-76
2023/07/17 04:49:11;;;;;;;7.10;3.65;;;;;;;;;;4168452;34;20044;-76
2023/07/17 04:51:37;;;;;;;12.37;3.28;;;;;;;;;;4166566;34;20512;-76
2023/07/17 04:54:04;;;;;;;5.62;3.72;;;;;;;;;;4168824;34;20051;-77
2023/07/17 04:56:31;;;;;;;3.53;3.22;;;;;;;;;;4144596;34;20397;-75
2023/07/17 04:58:57;;;;;;;7.32;3.37;;;;;;;;;;4168354;34;20079;-74
2023/07/17 05:01:24;;;;;;;4.53;3.67;;;;;;;;;;4178528;34;20047;-74
2023/07/17 05:03:51;;;;;;;3.85;3.42;;;;;;;;;;4179309;34;20051;-75
2023/07/17 05:06:17;;;;;;;13.93;3.72;;;;;;;;;;4181693;34;20071;-74
2023/07/17 05:08:43;;;;;;;11.18;3.50;;;;;;;;;;4167925;34;20036;-74
2023/07/17 05:11:11;;;;;;;5.40;3.67;;;;;;;;;;4156722;34;20070;-74
2023/07/17 05:13:38;;;;;;;5.07;3.90;;;;;;;;;;4167625;34;20515;-77
2023/07/17 05:16:05;;;;;;;5.00;4.18;;;;;;;;;;4169131;34;20066;-74
2023/07/17 05:18:31;;;;;;;8.48;3.85;;;;;;;;;;4154766;34;20078;-75
2023/07/17 05:20:57;;;;;;;6.53;3.22;;;;;;;;;;4140881;34;20503;-75
2023/07/17 05:23:24;;;;;;;8.32;3.33;;;;;;;;;;4129790;34;20462;-76
2023/07/17 05:25:54;;;;;;;16.27;4.22;;;;;;;;;;4139593;34;20516;-77
2023/07/17 05:28:20;;;;;;;14.20;4.00;;;;;;;;;;4146998;34;20506;-75
2023/07/17 05:30:50;;;;;;;7.32;3.30;;;;;;;;;;4143098;34;20497;-75
2023/07/17 05:33:17;;;;;;;5.75;3.22;;;;;;;;;;4154375;34;20088;-75
2023/07/17 05:35:44;;;;;;;4.30;3.22;;;;;;;;;;4154221;34;20057;-75
2023/07/17 05:38:10;;;;;;;9.38;3.37;;;;;;;;;;4152552;34;20053;-74
2023/07/17 05:40:39;;;;;;;7.93;3.58;;;;;;;;;;4167959;34;20044;-75
2023/07/17 05:43:05;;;;;;;4.28;3.87;;;;;;;;;;4140457;34;20041;-76
2023/07/17 05:45:32;;;;;;;7.75;3.22;;;;;;;;;;4140539;34;20041;-75
2023/07/17 05:47:59;;;;;;;3.67;3.22;;;;;;;;;;4138679;34;20076;-76
2023/07/17 05:50:25;;;;;;;16.75;3.87;;;;;;;;;;4163443;34;20068;-75
2023/07/17 05:52:51;;;;;;;5.55;2.90;;;;;;;;;;4153548;34;20070;-75
2023/07/17 05:55:18;;;;;;;6.47;3.17;;;;;;;;;;4154399;34;20197;-76
2023/07/17 05:57:44;;;;;;;16.35;3.42;;;;;;;;;;4156363;34;20802;-77
2023/07/17 06:00:14;;;;;;;7.93;2.72;;;;;;;;;;4188175;34;20053;-75
2023/07/17 06:02:43;;;;;;;13.48;3.87;;;;;;;;;;4194168;34;20077;-76
2023/07/17 06:05:10;;;;;;;9.18;3.72;;;;;;;;;;4195303;34;20069;-76
2023/07/17 06:07:39;;;;;;;13.05;2.83;;;;;;;;;;4180362;34;20379;-75
2023/07/17 06:10:07;;;;;;;14.32;3.42;;;;;;;;;;4165172;34;20040;-76
2023/07/17 06:12:33;;;;;;;5.78;3.08;;;;;;;;;;4167268;34;20186;-76
2023/07/17 06:15:00;;;;;;;4.07;3.40;;;;;;;;;;4176230;34;20040;-76
2023/07/17 06:17:26;;;;;;;5.50;3.00;;;;;;;;;;4180831;34;20074;-76
2023/07/17 06:19:52;;;;;;;6.87;3.42;;;;;;;;;;4180469;34;20044;-76
2023/07/17 06:22:19;;;;;;;16.02;3.12;;;;;;;;;;4178598;34;20475;-74
2023/07/17 06:24:45;;;;;;;11.27;2.90;;;;;;;;;;4180594;34;20168;-75
2023/07/17 06:27:11;;;;;;;10.05;3.65;;;;;;;;;;4180366;34;20052;-76
2023/07/17 06:29:37;;;;;;;4.85;3.22;;;;;;;;;;4164256;34;20033;-75
2023/07/17 06:32:04;;;;;;;17.87;4.22;;;;;;;;;;4152968;34;20119;-75
2023/07/17 06:34:30;;;;;;;3.60;2.75;;;;;;;;;;4151139;34;20444;-76
2023/07/17 06:36:57;;;;;;;7.45;2.95;;;;;;;;;;4153228;34;20722;-75
2023/07/17 06:39:24;;;;;;;12.98;3.28;;;;;;;;;;4153642;34;20120;-75
2023/07/17 06:41:51;;;;;;;2.90;2.65;;;;;;;;;;4161873;34;20039;-75
2023/07/17 06:44:17;;;;;;;6.40;3.30;;;;;;;;;;4180495;34;20173;-75
2023/07/17 06:46:43;;;;;;;8.60;3.75;;;;;;;;;;4179501;34;20052;-76
2023/07/17 06:49:15;;;;;;;4.80;2.95;;;;;;;;;;4180857;34;20146;-75
2023/07/17 06:51:42;;;;;;;4.40;3.22;;;;;;;;;;4184588;34;20822;-75
2023/07/17 06:54:08;;;;;;;3.45;2.72;;;;;;;;;;4207903;34;20073;-76
2023/07/17 06:56:35;;;;;;;6.28;3.28;;;;;;;;;;4206982;34;20047;-77
2023/07/17 06:59:01;;;;;;;4.80;3.05;;;;;;;;;;4176701;34;20048;-75
2023/07/17 07:01:28;;;;;;;10.52;3.00;;;;;;;;;;4200484;33;20079;-75
2023/07/17 07:03:54;;;;;;;7.68;3.42;;;;;;;;;;4224388;33;20043;-76
2023/07/17 07:06:20;;;;;;;6.57;2.62;;;;;;;;;;4236500;33;20046;-75
2023/07/17 07:08:47;;;;;;;2.90;2.62;;;;;;;;;;4235387;33;20082;-76
2023/07/17 07:11:13;;;;;;;11.75;2.97;;;;;;;;;;4205654;34;20059;-75
2023/07/17 07:13:42;;;;;;;3.83;2.85;;;;;;;;;;4207979;34;20364;-75
2023/07/17 07:16:09;;;;;;;5.65;2.60;;;;;;;;;;4196335;34;20043;-75
2023/07/17 07:18:35;;;;;;;3.78;2.78;;;;;;;;;;4208048;34;20787;-74
2023/07/17 07:21:01;;;;;;;4.03;2.60;;;;;;;;;;4206497;34;20042;-77
2023/07/17 07:23:27;;;;;;;8.15;2.50;;;;;;;;;;4207724;34;20385;-75
2023/07/17 07:25:54;;;;;;;7.72;3.00;;;;;;;;;;4208291;34;20059;-76
2023/07/17 07:28:21;;;;;;;6.72;3.42;;;;;;;;;;4194097;34;20481;-75
2023/07/17 07:30:53;;;;;;;13.80;3.47;;;;;;;;;;4194124;34;20051;-75
2023/07/17 07:33:20;;;;;;;6.15;3.37;;;;;;;;;;4192330;34;20055;-76
2023/07/17 07:35:47;;;;;;;4.20;3.33;;;;;;;;;;4168332;34;20531;-76
2023/07/17 07:38:13;;;;;;;6.75;3.22;;;;;;;;;;4180401;34;20340;-74
2023/07/17 07:40:40;;;;;;;4.15;2.65;;;;;;;;;;4180162;34;20767;-74
2023/07/17 07:43:06;;;;;;;2.80;2.60;;;;;;;;;;4168234;34;20173;-76
2023/07/17 07:45:32;;;;;;;7.93;2.67;;;;;;;;;;4179556;34;20441;-75
2023/07/17 07:47:59;;;;;;;3.22;2.50;;;;;;;;;;4166085;34;20070;-75
2023/07/17 07:50:25;;;;;;;3.65;2.95;;;;;;;;;;4167505;34;20044;-75
2023/07/17 07:52:51;;;;;;;3.58;2.15;;;;;;;;;;4188581;34;20044;-75
2023/07/17 07:55:18;;;;;;;15.60;2.87;;;;;;;;;;4193405;34;20131;-75
2023/07/17 07:57:44;;;;;;;3.95;2.60;;;;;;;;;;4193418;34;20508;-74
2023/07/17 08:00:17;;;;;;;14.30;2.37;;;;;;;;;;4182160;34;20113;-75
2023/07/17 08:02:43;;;;;;;5.00;2.30;;;;;;;;;;4194461;34;20077;-74
2023/07/17 08:05:10;;;;;;;6.82;2.80;;;;;;;;;;4202568;33;20054;-76
2023/07/17 08:07:36;;;;;;;6.15;2.65;;;;;;;;;;4234328;33;20389;-75
2023/07/17 08:10:03;;;;;;;10.55;2.35;;;;;;;;;;4222482;34;20082;-75
2023/07/17 08:12:29;;;;;;;2.47;2.25;;;;;;;;;;4208761;34;20057;-75
2023/07/17 08:14:56;;;;;;;3.12;2.45;;;;;;;;;;4210298;34;20047;-74
2023/07/17 08:17:22;;;;;;;6.50;2.53;;;;;;;;;;4223356;34;20080;-77
2023/07/17 08:19:48;;;;;;;3.85;2.72;;;;;;;;;;4233980;33;20049;-74
2023/07/17 08:22:15;;;;;;;3.53;3.05;;;;;;;;;;4238016;33;20061;-77
2023/07/17 08:24:42;;;;;;;6.43;2.22;;;;;;;;;;4238373;33;20042;-74
2023/07/17 08:27:08;;;;;;;9.00;2.58;;;;;;;;;;4238065;33;20061;-74
2023/07/17 08:29:34;;;;;;;5.78;2.53;;;;;;;;;;4236252;33;20064;-75
2023/07/17 08:32:01;;;;;;;3.05;2.75;;;;;;;;;;4237360;33;20047;-75
2023/07/17 08:34:27;;;;;;;4.78;2.30;;;;;;;;;;4226354;33;20078;-74
2023/07/17 08:36:53;;;;;;;6.93;3.05;;;;;;;;;;4223488;34;20035;-74
2023/07/17 08:39:20;;;;;;;3.35;2.40;;;;;;;;;;4222988;34;20046;-74
2023/07/17 08:41:46;;;;;;;6.87;2.65;;;;;;;;;;4222707;34;20049;-74
2023/07/17 08:44:15;;;;;;;6.75;2.70;;;;;;;;;;4224041;34;20316;-74
2023/07/17 08:46:42;;;;;;;5.05;2.47;;;;;;;;;;4195765;34;20132;-74
2023/07/17 08:49:16;;;;;;;5.30;2.95;;;;;;;;;;4209299;34;20189;-75
2023/07/17 08:51:42;;;;;;;6.62;3.40;;;;;;;;;;4165868;34;20056;-75
2023/07/17 08:54:10;;;;;;;4.00;3.03;;;;;;;;;;4168265;34;20622;-75
2023/07/17 08:56:36;;;;;;;2.28;2.17;;;;;;;;;;4157194;34;20452;-75
2023/07/17 08:59:03;;;;;;;2.65;2.45;;;;;;;;;;4168242;34;20375;-75
2023/07/17 09:01:33;;;;;;;4.47;2.87;;;;;;;;;;4165555;34;20434;-74
2023/07/17 09:04:02;;;;;;;2.17;2.08;;;;;;;;;;4154492;34;20478;-75
2023/07/17 09:06:28;;;;;;;4.03;2.50;;;;;;;;;;4154514;34;20045;-75
2023/07/17 09:08:55;;;;;;;3.42;2.40;;;;;;;;;;4154730;34;20036;-74
2023/07/17 09:11:21;;;;;;;3.90;2.60;;;;;;;;;;4142420;34;20086;-75
2023/07/17 09:13:49;;;;;;;2.53;2.33;;;;;;;;;;4115691;34;20327;-74
2023/07/17 09:16:18;;;;;;;3.83;2.47;;;;;;;;;;4127727;34;20075;-75
2023/07/17 09:18:45;;;;;;;3.65;2.58;;;;;;;;;;4103662;34;20068;-75
2023/07/17 09:21:13;;;;;;;2.62;2.30;;;;;;;;;;4101217;35;20072;-74
2023/07/17 09:23:40;;;;;;;2.78;2.53;;;;;;;;;;4122318;34;20049;-76
2023/07/17 09:26:06;;;;;;;6.03;2.45;;;;;;;;;;4153554;34;20784;-75
2023/07/17 09:28:37;;;;;;;4.00;3.03;;;;;;;;;;4154474;34;20076;-75
2023/07/17 09:31:04;;;;;;;5.70;2.70;;;;;;;;;;4143337;34;20058;-75
2023/07/17 09:33:35;;;;;;;2.28;2.17;;;;;;;;;;4125945;34;20046;-77
2023/07/17 09:36:01;;;;;;;2.67;2.28;;;;;;;;;;4151053;34;20045;-75
2023/07/17 09:38:28;;;;;;;3.15;2.37;;;;;;;;;;4152430;34;20052;-76
2023/07/17 09:40:54;;;;;;;3.65;2.50;;;;;;;;;;4155031;34;20070;-75
2023/07/17 09:43:30;;;;;;;3.40;2.42;;;;;;;;;;4154597;34;20403;-75
2023/07/17 09:46:00;;;;;;;4.00;2.30;;;;;;;;;;4167098;34;20074;-75
2023/07/17 09:48:27;;;;;;;6.05;2.60;;;;;;;;;;4167548;34;20538;-75
2023/07/17 09:50:57;;;;;;;2.35;2.08;;;;;;;;;;4168006;34;20033;-75
2023/07/17 09:53:24;;;;;;;2.95;2.70;;;;;;;;;;4152049;34;20052;-76
2023/07/17 09:55:51;;;;;;;6.22;2.45;;;;;;;;;;4154288;34;20480;-75
2023/07/17 09:58:20;;;;;;;3.22;2.72;;;;;;;;;;4142725;34;20048;-75
2023/07/17 10:00:48;;;;;;;4.32;2.37;;;;;;;;;;4168671;34;20069;-75
2023/07/17 10:03:17;;;;;;;2.50;2.30;;;;;;;;;;4164836;34;20390;-76
2023/07/17 10:05:43;;;;;;;3.28;2.33;;;;;;;;;;4166470;34;20053;-75
2023/07/17 10:08:10;;;;;;;3.15;2.03;;;;;;;;;;4167186;34;20061;-76
2023/07/17 10:10:37;;;;;;;4.28;2.35;;;;;;;;;;4141695;34;20102;-76
2023/07/17 10:13:05;;;;;;;2.35;2.25;;;;;;;;;;4166437;34;20066;-78
2023/07/17 10:15:31;;;;;;;2.67;2.05;;;;;;;;;;4154561;34;20181;-76
2023/07/17 10:17:58;;;;;;;2.60;2.40;;;;;;;;;;4152995;34;20341;-75
2023/07/17 10:20:25;;;;;;;11.38;3.28;;;;;;;;;;4139471;34;20485;-75
2023/07/17 10:22:51;;;;;;;3.65;2.25;;;;;;;;;;4140168;34;20087;-76
2023/07/17 10:25:17;;;;;;;2.67;2.25;;;;;;;;;;4141753;34;20604;-77
2023/07/17 10:27:45;;;;;;;3.55;2.50;;;;;;;;;;4163681;34;20040;-76
2023/07/17 10:30:22;;;;;;;2.45;2.22;;;;;;;;;;4153539;34;20442;-77
2023/07/17 10:33:06;;;;;;;11.98;2.15;;;;;;;;;;4126624;34;20089;-76
2023/07/17 10:36:02;;;;;;;2.78;2.22;;;;;;;;;;4124225;34;20090;-75
2023/07/17 10:38:36;;;;;;;2.45;2.25;;;;;;;;;;4124448;34;20096;-77
2023/07/17 10:41:23;;;;;;;4.90;2.42;;;;;;;;;;4113064;34;20075;-75
2023/07/17 10:43:53;;;;;;;2.67;2.47;;;;;;;;;;4128734;34;20071;-78
2023/07/17 10:46:24;;;;;;;2.50;2.40;;;;;;;;;;4125819;34;20826;-76
2023/07/17 10:48:50;;;;;;;5.22;2.72;;;;;;;;;;4137628;34;20101;-77
2023/07/17 10:51:17;;;;;;;5.95;2.30;;;;;;;;;;4159096;34;20091;-75
2023/07/17 10:53:43;;;;;;;2.67;2.47;;;;;;;;;;4166596;34;20391;-76
2023/07/17 10:56:10;;;;;;;3.65;2.80;;;;;;;;;;4162861;34;20484;-75
2023/07/17 10:58:36;;;;;;;5.32;2.40;;;;;;;;;;4166739;34;20071;-76
2023/07/17 11:01:05;;;;;;;7.85;2.87;;;;;;;;;;4300814;29;20077;-78
2023/07/17 11:03:36;;;;;;;2.40;1.98;;;;;;;;;;4143713;34;20050;-76
2023/07/17 11:06:02;;;;;;;9.13;2.87;;;;;;;;;;4142152;34;20078;-76
2023/07/17 11:08:29;;;;;;;2.00;1.90;;;;;;;;;;4166626;34;20068;-75
2023/07/17 11:10:56;;;;;;;4.03;2.28;;;;;;;;;;4167124;34;20132;-77
2023/07/17 11:13:22;;;;;;;2.65;2.37;;;;;;;;;;4151137;34;20045;-76
2023/07/17 11:15:48;;;;;;;5.60;2.37;;;;;;;;;;4180038;34;20304;-76
2023/07/17 11:18:14;;;;;;;6.10;2.72;;;;;;;;;;4180239;34;20480;-76
2023/07/17 11:20:41;;;;;;;3.62;2.62;;;;;;;;;;4180019;34;20051;-76
2023/07/17 11:23:10;;;;;;;2.35;2.15;;;;;;;;;;4179511;34;20074;-80
2023/07/17 11:25:37;;;;;;;5.78;2.50;;;;;;;;;;4166363;34;20063;-77
2023/07/17 11:28:04;;;;;;;3.55;2.28;;;;;;;;;;4152856;34;20040;-75
2023/07/17 11:30:34;;;;;;;4.15;2.35;;;;;;;;;;4127877;34;20067;-75
2023/07/17 11:33:01;;;;;;;5.35;4.05;;;;;;;;;;4125914;34;20112;-75
2023/07/17 11:35:40;;;;;;;3.10;2.60;;;;;;;;;;4126365;34;20075;-75
2023/07/17 11:38:10;;;;;;;9.45;2.67;;;;;;;;;;4173592;34;20032;-74
2023/07/17 11:40:53;;;;;;;10.60;2.55;;;;;;;;;;4140158;34;20041;-75
2023/07/17 11:43:23;;;;;;;8.75;2.60;;;;;;;;;;4139002;34;20045;-75
2023/07/17 11:45:49;;;;;;;5.60;2.03;;;;;;;;;;4128566;34;20073;-75
2023/07/17 11:48:15;;;;;;;5.50;2.22;;;;;;;;;;4151630;34;20041;-75
2023/07/17 11:50:42;;;;;;;3.25;2.25;;;;;;;;;;4153474;34;20045;-75
2023/07/17 11:53:16;;;;;;;6.40;2.30;;;;;;;;;;4167577;34;20051;-76
2023/07/17 11:55:44;;;;;;;4.90;2.12;;;;;;;;;;4157006;34;20077;-75
2023/07/17 11:58:17;;;;;;;3.83;2.40;;;;;;;;;;4180975;34;20069;-75
2023/07/17 12:00:44;;;;;;;13.55;2.50;;;;;;;;;;4175211;34;20700;-75
2023/07/17 12:03:11;;;;;;;8.18;2.78;;;;;;;;;;4180607;34;20079;-75
2023/07/17 12:05:37;;;;;;;7.15;2.37;;;;;;;;;;4182174;34;20058;-76
2023/07/17 12:08:04;;;;;;;2.90;2.67;;;;;;;;;;4182751;34;20040;-75
2023/07/17 12:10:31;;;;;;;2.60;2.42;;;;;;;;;;4182222;34;20090;-75
2023/07/17 12:12:57;;;;;;;8.02;2.10;;;;;;;;;;4182540;34;20047;-75
2023/07/17 12:15:23;;;;;;;6.55;2.55;;;;;;;;;;4195946;34;20394;-75
2023/07/17 12:17:50;;;;;;;2.40;2.20;;;;;;;;;;4182135;34;20058;-75
2023/07/17 12:20:18;;;;;;;4.70;2.45;;;;;;;;;;4182410;34;20048;-75
2023/07/17 12:22:55;;;;;;;3.17;2.25;;;;;;;;;;4180688;34;20036;-77
2023/07/17 12:25:22;;;;;;;5.28;2.30;;;;;;;;;;4169278;34;20070;-76
2023/07/17 12:27:48;;;;;;;6.47;2.35;;;;;;;;;;4158587;34;20068;-75
2023/07/17 12:30:16;;;;;;;7.43;2.30;;;;;;;;;;4180851;34;20052;-76
2023/07/17 12:32:42;;;;;;;7.30;2.33;;;;;;;;;;4180169;34;20043;-74
2023/07/17 12:35:09;;;;;;;4.93;3.00;;;;;;;;;;4141360;34;20269;-75
2023/07/17 12:37:35;;;;;;;10.95;2.75;;;;;;;;;;4141355;34;20037;-75
2023/07/17 12:40:03;;;;;;;3.53;2.40;;;;;;;;;;4142484;34;20078;-76
2023/07/17 12:42:29;;;;;;;4.65;2.28;;;;;;;;;;4152874;34;20028;-76
2023/07/17 12:44:56;;;;;;;5.43;3.10;;;;;;;;;;4153142;34;20097;-75
2023/07/17 12:47:22;;;;;;;7.15;2.58;;;;;;;;;;4167177;34;20697;-74
2023/07/17 12:49:48;;;;;;;11.20;2.60;;;;;;;;;;4180678;34;20098;-75
2023/07/17 12:52:16;;;;;;;4.70;2.47;;;;;;;;;;4181609;34;20044;-75
2023/07/17 12:54:42;;;;;;;8.15;2.45;;;;;;;;;;4181265;34;20047;-75
2023/07/17 12:57:08;;;;;;;5.75;2.70;;;;;;;;;;4180423;34;20506;-75
2023/07/17 12:59:35;;;;;;;8.15;2.33;;;;;;;;;;4170550;34;20851;-75
2023/07/17 13:02:01;;;;;;;8.15;2.50;;;;;;;;;;4183670;34;20038;-74
2023/07/17 13:04:28;;;;;;;3.80;2.45;;;;;;;;;;4181594;34;20413;-74
2023/07/17 13:09:27;;;;;;;3.87;2.30;;;;;;;;;;4223381;34;20050;-75
2023/07/17 13:11:54;;;;;;;5.93;2.47;;;;;;;;;;4209230;34;20031;-75
2023/07/17 13:14:20;;;;;;;7.43;3.40;;;;;;;;;;4197764;34;20051;-75
2023/07/17 13:16:47;;;;;;;6.30;2.58;;;;;;;;;;4194899;34;20411;-75
2023/07/17 13:19:14;;;;;;;10.48;2.40;;;;;;;;;;4182008;34;20444;-75
2023/07/17 13:21:40;;;;;;;2.72;2.28;;;;;;;;;;4195499;34;20915;-74
2023/07/17 13:24:07;;;;;;;4.22;2.45;;;;;;;;;;4195383;34;20062;-75
2023/07/17 13:26:33;;;;;;;8.77;3.08;;;;;;;;;;4194957;34;20053;-76
2023/07/17 13:29:00;;;;;;;5.90;2.50;;;;;;;;;;4182532;34;20062;-75
2023/07/17 13:31:27;;;;;;;3.70;2.22;;;;;;;;;;4195027;34;20511;-75
2023/07/17 13:33:53;;;;;;;13.98;3.87;;;;;;;;;;4195019;34;20043;-75
2023/07/17 13:36:19;;;;;;;4.93;2.50;;;;;;;;;;4172775;34;20036;-75
2023/07/17 13:38:46;;;;;;;7.82;3.20;;;;;;;;;;4180838;34;20439;-75
2023/07/17 13:41:18;;;;;;;3.10;2.50;;;;;;;;;;4166051;34;20486;-76
2023/07/17 13:43:45;;;;;;;9.55;2.55;;;;;;;;;;4192375;34;20085;-74
2023/07/17 13:46:11;;;;;;;7.55;2.47;;;;;;;;;;4197111;34;20055;-75
2023/07/17 13:48:38;;;;;;;5.32;2.60;;;;;;;;;;4208693;34;20072;-75
2023/07/17 13:51:04;;;;;;;5.05;2.20;;;;;;;;;;4208925;34;20057;-75
2023/07/17 13:53:30;;;;;;;5.87;3.70;;;;;;;;;;4204214;34;20070;-75
2023/07/17 13:55:56;;;;;;;2.40;2.20;;;;;;;;;;4194574;34;20056;-76
2023/07/17 13:58:23;;;;;;;4.43;2.30;;;;;;;;;;4195285;34;20051;-75
2023/07/17 14:00:49;;;;;;;5.30;2.53;;;;;;;;;;4202127;34;20369;-76
2023/07/17 14:03:16;;;;;;;5.50;2.28;;;;;;;;;;4207446;34;20067;-75
2023/07/17 14:05:42;;;;;;;2.03;1.87;;;;;;;;;;4193809;34;20423;-76
2023/07/17 14:08:08;;;;;;;11.20;3.20;;;;;;;;;;4194669;34;20201;-76
2023/07/17 14:10:35;;;;;;;3.12;2.30;;;;;;;;;;4194968;34;20065;-76
2023/07/17 14:13:01;;;;;;;4.80;2.97;;;;;;;;;;4194839;34;20065;-75
2023/07/17 14:15:27;;;;;;;3.10;2.50;;;;;;;;;;4192890;34;20066;-77
2023/07/17 14:17:54;;;;;;;3.97;2.47;;;;;;;;;;4167179;34;20201;-75
2023/07/17 14:20:20;;;;;;;11.63;2.50;;;;;;;;;;4155825;34;20036;-75
2023/07/17 14:22:47;;;;;;;7.07;2.65;;;;;;;;;;4180649;34;20066;-75
2023/07/17 14:25:14;;;;;;;3.85;2.72;;;;;;;;;;4181271;34;20105;-76
2023/07/17 14:27:40;;;;;;;8.88;2.83;;;;;;;;;;4166123;34;20066;-75
2023/07/17 14:30:06;;;;;;;10.35;3.30;;;;;;;;;;4156255;34;20073;-74
2023/07/17 14:32:33;;;;;;;4.78;2.62;;;;;;;;;;4167444;34;20064;-75
2023/07/17 14:34:59;;;;;;;6.32;3.40;;;;;;;;;;4140539;34;20041;-74
2023/07/17 14:37:26;;;;;;;5.05;2.40;;;;;;;;;;4138991;34;20467;-75
2023/07/17 14:39:52;;;;;;;2.83;2.60;;;;;;;;;;4126200;34;20521;-75
2023/07/17 14:42:18;;;;;;;4.90;3.12;;;;;;;;;;4139263;34;20081;-75
2023/07/17 14:44:46;;;;;;;4.35;2.30;;;;;;;;;;4133164;34;20403;-75
2023/07/17 14:47:12;;;;;;;5.75;2.72;;;;;;;;;;4136654;34;20412;-75
2023/07/17 14:49:39;;;;;;;5.62;2.97;;;;;;;;;;4146008;34;20083;-77
2023/07/17 14:52:07;;;;;;;4.30;2.72;;;;;;;;;;4139949;34;20058;-75
2023/07/17 14:54:33;;;;;;;7.00;5.15;;;;;;;;;;4142619;34;20049;-75
2023/07/17 14:57:00;;;;;;;4.28;2.67;;;;;;;;;;4139398;34;20086;-76
2023/07/17 14:59:25;;;;;;;6.15;3.03;;;;;;;;;;4160184;34;20044;-77
2023/07/17 15:01:52;;;;;;;7.68;3.22;;;;;;;;;;4166185;34;20056;-76
2023/07/17 15:04:18;;;;;;;8.23;2.53;;;;;;;;;;4164540;34;20040;-74
2023/07/17 15:06:51;;;;;;;4.45;3.30;;;;;;;;;;4175761;34;20032;-75
2023/07/17 15:09:17;;;;;;;4.28;3.12;;;;;;;;;;4179819;34;20073;-78
2023/07/17 15:11:47;;;;;;;8.88;2.90;;;;;;;;;;4180298;34;20427;-77
2023/07/17 15:14:16;;;;;;;14.98;3.83;;;;;;;;;;4178863;34;20079;-77
2023/07/17 15:16:43;;;;;;;6.35;2.85;;;;;;;;;;4181058;34;20048;-77
2023/07/17 15:19:09;;;;;;;12.57;3.42;;;;;;;;;;4192288;34;20124;-77
2023/07/17 15:21:35;;;;;;;5.47;3.15;;;;;;;;;;4229588;33;20039;-77
2023/07/17 15:24:01;;;;;;;9.13;3.62;;;;;;;;;;4234598;33;20125;-76
2023/07/17 15:26:27;;;;;;;5.85;3.60;;;;;;;;;;4221613;34;20038;-75
2023/07/17 15:28:54;;;;;;;11.90;3.33;;;;;;;;;;4221076;34;20051;-75
2023/07/17 15:31:20;;;;;;;3.95;2.95;;;;;;;;;;4221495;34;20050;-75
2023/07/17 15:33:46;;;;;;;3.92;2.95;;;;;;;;;;4221758;34;20054;-78
2023/07/17 15:36:12;;;;;;;5.70;3.10;;;;;;;;;;4219803;34;20065;-76
2023/07/17 15:38:38;;;;;;;5.93;3.20;;;;;;;;;;4222077;34;20072;-75
2023/07/17 15:41:05;;;;;;;7.65;3.05;;;;;;;;;;4244011;33;20397;-75
2023/07/17 15:43:32;;;;;;;3.92;2.42;;;;;;;;;;4250668;33;20084;-75
2023/07/17 15:45:58;;;;;;;11.40;2.72;;;;;;;;;;4249057;33;20086;-76
2023/07/17 15:48:24;;;;;;;4.72;2.97;;;;;;;;;;4250034;33;20112;-75
2023/07/17 15:50:50;;;;;;;3.33;2.35;;;;;;;;;;4250875;33;20046;-75
2023/07/17 15:53:24;;;;;;;5.95;3.62;;;;;;;;;;4250926;33;20071;-75
2023/07/17 15:55:50;;;;;;;7.45;2.65;;;;;;;;;;4249752;33;20088;-77
2023/07/17 15:58:17;;;;;;;2.47;2.30;;;;;;;;;;4262013;33;20054;-76
2023/07/17 16:00:43;;;;;;;9.93;3.92;;;;;;;;;;4267190;33;20067;-76
2023/07/17 16:03:10;;;;;;;4.50;3.92;;;;;;;;;;4265495;33;20046;-81
2023/07/17 16:05:36;;;;;;;4.87;4.15;;;;;;;;;;4267191;33;20384;-74
2023/07/17 16:08:02;;;;;;;6.47;4.07;;;;;;;;;;4264842;33;20054;-76
2023/07/17 16:10:29;;;;;;;12.73;4.18;;;;;;;;;;4267222;33;20101;-76
2023/07/17 16:12:55;;;;;;;11.00;4.30;;;;;;;;;;4265347;33;20053;-75
2023/07/17 16:15:21;;;;;;;6.32;5.32;;;;;;;;;;4267171;33;20073;-76
2023/07/17 16:17:54;;;;;;;9.60;5.87;;;;;;;;;;4258447;33;20054;-77
2023/07/17 16:20:20;;;;;;;8.00;4.65;;;;;;;;;;4257795;33;20064;-77
2023/07/17 16:22:47;;;;;;;5.85;4.68;;;;;;;;;;4246333;33;20099;-75
2023/07/17 16:25:13;;;;;;;8.82;5.40;;;;;;;;;;4249600;33;20555;-75
2023/07/17 16:27:39;;;;;;;7.55;4.72;;;;;;;;;;4249175;33;20053;-76
2023/07/17 16:30:06;;;;;;;5.43;4.57;;;;;;;;;;4247294;33;20094;-77
2023/07/17 16:32:32;;;;;;;8.13;4.43;;;;;;;;;;4249543;33;20053;-76
2023/07/17 16:34:58;;;;;;;11.48;4.87;;;;;;;;;;4250542;33;20138;-75
2023/07/17 16:37:25;;;;;;;5.40;4.05;;;;;;;;;;4252509;33;20038;-76
2023/07/17 16:39:51;;;;;;;10.63;3.97;;;;;;;;;;4251824;33;20088;-77
2023/07/17 16:42:17;;;;;;;6.68;3.90;;;;;;;;;;4250906;33;20054;-74